Time;durP1;ratioP1;P1;durP2;ratioP2;P2;SDS_P1;SDS_P2;PMS_P1;PMS_P2;Temp;Humidity;BMP_temperature;BMP_pressure;BME280_temperature;BME280_humidity;BME280_pressure;Samples;Min_cycle;Max_cycle;Signal;HPM_P1;HPM_P2
2022/06/28 00:01:20;;;;;;;3.45;1.05;;;12.80;99.90;;;;;;5053234;28;20490;-66
2022/06/28 00:03:48;;;;;;;3.28;1.25;;;12.90;99.90;;;;;;5060396;28;20061;-65
2022/06/28 00:06:15;;;;;;;1.95;0.98;;;13.00;99.90;;;;;;5055528;28;20013;-65
2022/06/28 00:08:42;;;;;;;2.45;0.90;;;13.10;99.90;;;;;;5066624;28;20016;-68
2022/06/28 00:11:09;;;;;;;3.08;0.75;;;13.30;99.90;;;;;;5061035;28;20051;-66
2022/06/28 00:13:36;;;;;;;4.97;1.58;;;13.30;99.50;;;;;;5058183;28;20383;-64
2022/06/28 00:16:07;;;;;;;5.25;0.75;;;13.20;99.90;;;;;;5061647;28;20048;-63
2022/06/28 00:18:36;;;;;;;1.85;0.57;;;13.40;99.70;;;;;;5061271;28;20021;-66
2022/06/28 00:21:06;;;;;;;2.25;0.80;;;13.50;99.70;;;;;;5056425;28;20028;-65
2022/06/28 00:23:37;;;;;;;3.03;0.70;;;13.70;99.40;;;;;;5055641;28;20025;-66
2022/06/28 00:26:06;;;;;;;3.30;1.23;;;13.80;99.60;;;;;;5063454;28;20150;-64
2022/06/28 00:28:34;;;;;;;3.28;0.60;;;13.90;99.20;;;;;;5063921;28;20032;-65
2022/06/28 00:31:02;;;;;;;5.80;0.80;;;14.10;98.80;;;;;;5058462;28;20052;-65
2022/06/28 00:33:30;;;;;;;4.80;1.33;;;14.20;99.00;;;;;;5068861;28;20063;-64
2022/06/28 00:35:57;;;;;;;4.28;0.85;;;14.30;98.60;;;;;;5068238;28;20017;-65
2022/06/28 00:38:24;;;;;;;5.20;1.10;;;14.40;98.50;;;;;;5060681;28;20353;-64
2022/06/28 00:40:53;;;;;;;3.97;0.90;;;14.50;98.60;;;;;;5052894;28;20025;-65
2022/06/28 00:43:21;;;;;;;2.88;1.00;;;14.50;98.70;;;;;;5058988;28;20159;-64
2022/06/28 00:45:48;;;;;;;4.15;0.82;;;14.60;98.60;;;;;;5059996;28;20028;-66
2022/06/28 00:48:17;;;;;;;4.95;1.70;;;14.70;98.10;;;;;;5057754;28;20008;-65
2022/06/28 00:50:45;;;;;;;4.90;1.10;;;14.70;98.40;;;;;;5059578;28;20494;-65
2022/06/28 00:53:15;;;;;;;2.92;0.90;;;14.80;98.50;;;;;;5063456;28;20104;-66
2022/06/28 00:55:44;;;;;;;2.65;1.00;;;14.90;98.80;;;;;;5056547;28;20191;-66
2022/06/28 00:58:12;;;;;;;3.60;1.65;;;15.10;98.20;;;;;;5059677;28;20021;-64
2022/06/28 01:00:45;;;;;;;2.78;0.70;;;15.10;97.90;;;;;;5057560;28;20107;-66
2022/06/28 01:03:12;;;;;;;;;;;15.20;98.00;;;;;;5052445;28;20090;-66
2022/06/28 01:05:42;;;;;;;6.90;1.25;;;15.30;98.50;;;;;;5064024;28;20010;-67
2022/06/28 01:08:11;;;;;;;4.07;1.30;;;15.60;97.90;;;;;;5058183;28;20032;-67
2022/06/28 01:10:39;;;;;;;5.70;1.25;;;15.50;98.20;;;;;;5052508;28;20070;-65
2022/06/28 01:13:07;;;;;;;2.53;0.80;;;15.40;98.40;;;;;;5066250;28;20463;-65
2022/06/28 01:15:36;;;;;;;5.28;1.00;;;15.60;98.60;;;;;;5059811;28;20025;-66
2022/06/28 01:18:05;;;;;;;3.08;0.57;;;15.90;97.80;;;;;;5058484;28;20440;-65
2022/06/28 01:20:32;;;;;;;2.38;0.73;;;16.00;97.80;;;;;;5063651;28;20027;-64
2022/06/28 01:23:00;;;;;;;4.68;1.30;;;16.20;97.70;;;;;;5060655;28;20098;-63
2022/06/28 01:25:27;;;;;;;4.82;1.05;;;16.40;97.50;;;;;;5058743;28;20024;-62
2022/06/28 01:27:56;;;;;;;3.60;1.50;;;16.40;97.60;;;;;;5054225;28;20048;-63
2022/06/28 01:30:23;;;;;;;6.80;0.95;;;16.40;97.50;;;;;;5055266;28;20040;-62
2022/06/28 01:32:51;;;;;;;5.90;0.80;;;16.50;97.50;;;;;;5062339;28;20108;-62
2022/06/28 01:35:18;;;;;;;1.98;0.73;;;16.50;97.70;;;;;;5061075;28;20490;-63
2022/06/28 01:37:49;;;;;;;2.78;0.77;;;16.60;98.00;;;;;;5058303;28;20036;-62
2022/06/28 01:40:16;;;;;;;3.03;1.10;;;16.80;97.20;;;;;;5050562;28;20029;-62
2022/06/28 01:42:44;;;;;;;2.38;0.70;;;17.00;97.40;;;;;;5058131;28;20035;-62
2022/06/28 01:45:12;;;;;;;2.53;1.00;;;17.20;97.40;;;;;;5062647;28;20056;-63
2022/06/28 01:47:44;;;;;;;2.53;1.08;;;17.40;96.60;;;;;;5058070;28;20021;-64
2022/06/28 01:50:12;;;;;;;2.92;0.90;;;17.60;96.30;;;;;;5061183;28;20107;-63
2022/06/28 01:52:43;;;;;;;2.83;0.77;;;17.60;96.00;;;;;;5051706;28;20108;-64
2022/06/28 01:55:11;;;;;;;2.05;1.00;;;17.70;96.40;;;;;;5056246;28;20024;-65
2022/06/28 01:57:40;;;;;;;3.20;0.93;;;17.70;96.20;;;;;;5051173;28;20379;-64
2022/06/28 02:00:08;;;;;;;3.47;0.85;;;17.60;96.50;;;;;;5054576;28;20029;-65
2022/06/28 02:02:36;;;;;;;1.63;0.50;;;17.30;96.70;;;;;;5055915;28;20017;-64
2022/06/28 02:05:03;;;;;;;1.05;0.70;;;17.00;96.60;;;;;;5056928;28;20100;-65
2022/06/28 02:07:30;;;;;;;4.10;1.00;;;17.10;97.20;;;;;;5054270;28;20056;-63
2022/06/28 02:09:58;;;;;;;3.75;1.00;;;17.10;96.60;;;;;;5052139;28;20108;-64
2022/06/28 02:12:28;;;;;;;6.20;1.00;;;17.20;96.30;;;;;;5054012;28;20078;-65
2022/06/28 02:14:58;;;;;;;2.28;0.73;;;17.20;96.70;;;;;;5057421;28;20020;-62
2022/06/28 02:17:25;;;;;;;1.42;0.47;;;17.60;96.50;;;;;;5054104;28;20496;-61
2022/06/28 02:19:54;;;;;;;2.65;0.80;;;17.50;96.00;;;;;;5054401;28;20105;-63
2022/06/28 02:22:21;;;;;;;2.97;1.00;;;17.30;96.90;;;;;;5056053;28;20074;-62
2022/06/28 02:24:48;;;;;;;5.38;3.35;;;17.20;96.90;;;;;;5064349;28;20043;-65
2022/06/28 02:27:16;;;;;;;1.83;1.00;;;17.10;97.30;;;;;;5050303;28;20047;-65
2022/06/28 02:29:43;;;;;;;2.75;1.02;;;17.20;97.30;;;;;;5058836;28;20090;-62
2022/06/28 02:32:11;;;;;;;3.05;0.70;;;17.20;97.40;;;;;;5052630;28;20021;-64
2022/06/28 02:40:23;;;;;;;1.80;0.52;;;17.10;96.60;;;;;;5059667;28;20028;-63
2022/06/28 02:42:55;;;;;;;1.95;0.70;;;17.20;95.90;;;;;;5058366;28;20214;-63
2022/06/28 02:45:24;;;;;;;7.38;1.23;;;17.00;96.10;;;;;;5056174;28;20059;-65
2022/06/28 02:47:52;;;;;;;6.00;0.88;;;17.00;96.90;;;;;;5054221;28;20029;-65
2022/06/28 02:50:20;;;;;;;1.30;0.55;;;17.00;97.10;;;;;;5060043;28;20417;-62
2022/06/28 02:52:47;;;;;;;5.30;1.55;;;17.20;96.20;;;;;;5039046;28;20383;-65
2022/06/28 02:55:14;;;;;;;4.20;1.85;;;17.20;96.40;;;;;;5058400;28;20033;-62
2022/06/28 02:57:45;;;;;;;3.05;1.00;;;17.00;97.10;;;;;;5059427;28;20493;-64
2022/06/28 03:00:15;;;;;;;3.65;0.63;;;16.90;97.30;;;;;;5057885;28;20035;-61
2022/06/28 03:02:44;;;;;;;2.92;0.90;;;16.90;96.60;;;;;;5059805;28;20020;-63
2022/06/28 03:05:19;;;;;;;2.63;0.65;;;16.80;96.40;;;;;;5054829;28;20509;-64
2022/06/28 03:07:46;;;;;;;3.30;0.75;;;16.60;97.20;;;;;;4357386;28;10000805;-64
2022/06/28 03:10:14;;;;;;;2.35;0.73;;;16.50;97.40;;;;;;5049586;28;20027;-64
2022/06/28 03:12:41;;;;;;;1.60;0.65;;;16.60;97.20;;;;;;5053091;28;20020;-64
2022/06/28 03:15:09;;;;;;;3.08;0.95;;;16.50;97.00;;;;;;5068464;28;20035;-62
2022/06/28 03:17:36;;;;;;;4.97;1.10;;;16.30;97.50;;;;;;5051743;28;20025;-63
2022/06/28 03:20:04;;;;;;;2.13;0.93;;;16.20;98.20;;;;;;5052409;28;20051;-67
2022/06/28 03:22:31;;;;;;;3.42;0.90;;;16.20;98.40;;;;;;5050538;28;20025;-64
2022/06/28 03:24:58;;;;;;;2.38;0.73;;;16.10;97.90;;;;;;5051895;28;20438;-64
2022/06/28 03:27:25;;;;;;;3.80;0.90;;;16.00;98.40;;;;;;5061206;28;20548;-64
2022/06/28 03:29:52;;;;;;;3.03;0.85;;;15.90;98.80;;;;;;5050595;28;20053;-64
2022/06/28 03:32:19;;;;;;;2.35;0.80;;;16.00;98.70;;;;;;5053131;28;20020;-66
2022/06/28 03:34:46;;;;;;;3.25;0.80;;;16.00;99.20;;;;;;5064615;28;20469;-64
2022/06/28 03:37:15;;;;;;;1.35;0.90;;;15.90;99.30;;;;;;5054132;28;20415;-64
2022/06/28 03:39:42;;;;;;;2.33;0.63;;;15.90;99.10;;;;;;5052192;28;20124;-63
2022/06/28 03:42:10;;;;;;;0.43;0.40;;;15.90;98.70;;;;;;5056495;28;20048;-63
2022/06/28 03:44:37;;;;;;;2.03;0.90;;;15.90;98.90;;;;;;5050190;28;20029;-66
2022/06/28 03:47:05;;;;;;;2.17;1.00;;;15.90;98.90;;;;;;5054806;28;20025;-65
2022/06/28 03:49:33;;;;;;;5.35;1.00;;;15.90;99.10;;;;;;5053937;28;20102;-64
2022/06/28 03:52:00;;;;;;;2.67;0.90;;;15.90;99.50;;;;;;5054244;28;20040;-63
2022/06/28 03:54:28;;;;;;;2.30;0.82;;;15.80;99.90;;;;;;5057291;28;20035;-64
2022/06/28 03:56:55;;;;;;;3.17;1.08;;;15.80;99.90;;;;;;5056427;28;20707;-63
2022/06/28 03:59:22;;;;;;;5.65;1.00;;;15.90;99.90;;;;;;5053971;28;20037;-64
2022/06/28 04:01:49;;;;;;;3.08;0.82;;;16.00;99.30;;;;;;5054410;28;20478;-64
2022/06/28 04:04:16;;;;;;;6.05;0.90;;;16.00;99.80;;;;;;5058211;28;20025;-66
2022/06/28 04:06:44;;;;;;;2.45;0.95;;;15.90;99.90;;;;;;5060929;28;20529;-64
2022/06/28 04:09:11;;;;;;;5.10;1.00;;;16.00;99.90;;;;;;5056610;28;20048;-63
2022/06/28 04:11:38;;;;;;;3.83;1.02;;;16.00;99.90;;;;;;5053510;28;20565;-65
2022/06/28 04:14:05;;;;;;;1.58;0.75;;;16.10;99.90;;;;;;5041545;28;20025;-64
2022/06/28 04:16:32;;;;;;;2.35;0.80;;;16.00;99.90;;;;;;5054569;28;20112;-64
2022/06/28 04:19:00;;;;;;;3.92;0.95;;;16.00;99.90;;;;;;5053752;28;20024;-64
2022/06/28 04:21:27;;;;;;;4.22;0.95;;;16.00;99.90;;;;;;5053326;28;20449;-65
2022/06/28 04:23:54;;;;;;;4.30;0.90;;;16.00;99.90;;;;;;5053935;28;20039;-63
2022/06/28 04:26:21;;;;;;;5.70;1.30;;;15.90;99.90;;;;;;5052006;28;20035;-64
2022/06/28 04:28:48;;;;;;;7.32;0.80;;;15.90;99.90;;;;;;5061510;28;20024;-64
2022/06/28 04:31:15;;;;;;;2.58;0.98;;;16.10;99.90;;;;;;5059434;28;20090;-63
2022/06/28 04:33:43;;;;;;;4.30;0.95;;;16.10;99.90;;;;;;5060964;28;20436;-63
2022/06/28 04:36:11;;;;;;;2.75;1.05;;;16.20;99.90;;;;;;5052643;28;20399;-66
2022/06/28 04:38:38;;;;;;;4.47;1.20;;;16.20;99.90;;;;;;5053561;28;20017;-66
2022/06/28 04:41:05;;;;;;;2.88;0.85;;;16.10;99.90;;;;;;5054792;28;20139;-63
2022/06/28 04:43:32;;;;;;;3.08;1.40;;;16.10;99.90;;;;;;5053535;28;20087;-65
2022/06/28 04:45:59;;;;;;;3.80;1.05;;;16.00;99.90;;;;;;5052020;28;20123;-63
2022/06/28 04:48:26;;;;;;;6.53;0.90;;;15.90;99.90;;;;;;5054731;28;20501;-63
2022/06/28 04:50:53;;;;;;;3.83;0.80;;;15.70;99.90;;;;;;5056243;28;20054;-64
2022/06/28 04:53:21;;;;;;;2.25;0.60;;;15.60;99.90;;;;;;5054842;28;20140;-64
2022/06/28 04:55:48;;;;;;;2.05;0.75;;;15.60;99.90;;;;;;5054727;28;20500;-64
2022/06/28 04:58:16;;;;;;;2.75;0.93;;;15.60;99.90;;;;;;5060512;28;20622;-64
2022/06/28 05:00:43;;;;;;;4.13;1.10;;;15.60;99.90;;;;;;5055495;28;20382;-64
2022/06/28 05:03:10;;;;;;;3.42;0.80;;;15.70;99.90;;;;;;5056489;28;20032;-63
2022/06/28 05:05:37;;;;;;;1.52;0.60;;;15.70;99.90;;;;;;5052109;28;20455;-64
2022/06/28 05:08:04;;;;;;;3.05;1.10;;;15.60;99.90;;;;;;5049736;28;20100;-64
2022/06/28 05:10:31;;;;;;;3.67;0.80;;;15.50;99.90;;;;;;5052131;28;20352;-65
2022/06/28 05:12:58;;;;;;;3.80;1.15;;;15.50;99.90;;;;;;5055438;28;20111;-67
2022/06/28 05:15:25;;;;;;;3.83;1.00;;;15.50;99.90;;;;;;5055625;28;20266;-64
2022/06/28 05:17:52;;;;;;;1.83;0.68;;;15.50;99.90;;;;;;5052967;28;20033;-65
2022/06/28 05:20:20;;;;;;;1.10;0.70;;;15.50;99.90;;;;;;5053350;28;20086;-63
2022/06/28 05:22:47;;;;;;;3.35;0.40;;;15.40;99.90;;;;;;5053398;28;20036;-66
2022/06/28 05:25:14;;;;;;;2.40;0.63;;;15.30;99.90;;;;;;5052639;28;20075;-62
2022/06/28 05:27:41;;;;;;;3.17;0.85;;;15.30;99.90;;;;;;5050573;28;20033;-63
2022/06/28 05:30:09;;;;;;;2.28;0.80;;;15.20;99.90;;;;;;5099104;22;20060;-62
2022/06/28 05:32:36;;;;;;;2.40;0.90;;;15.10;99.90;;;;;;5050381;28;20139;-63
2022/06/28 05:35:03;;;;;;;1.40;0.50;;;15.00;99.90;;;;;;5051074;28;20028;-63
2022/06/28 05:37:30;;;;;;;1.65;0.70;;;14.90;99.90;;;;;;5050230;28;20430;-62
2022/06/28 05:39:58;;;;;;;2.03;0.75;;;15.00;99.90;;;;;;5050009;28;20490;-63
2022/06/28 05:42:25;;;;;;;2.88;0.60;;;15.00;99.90;;;;;;5048812;28;20025;-62
2022/06/28 05:44:52;;;;;;;1.60;0.50;;;14.90;99.90;;;;;;5048970;28;20050;-61
2022/06/28 05:47:19;;;;;;;2.38;0.60;;;14.80;99.90;;;;;;5049470;28;20020;-63
2022/06/28 05:49:46;;;;;;;3.70;0.68;;;14.70;99.90;;;;;;5048275;28;20116;-62
2022/06/28 05:52:13;;;;;;;3.72;0.68;;;14.80;99.90;;;;;;5050705;28;20100;-63
2022/06/28 05:54:40;;;;;;;1.70;0.65;;;15.00;99.90;;;;;;5050129;28;20054;-63
2022/06/28 05:57:07;;;;;;;3.03;0.60;;;14.90;99.90;;;;;;5071154;28;20093;-64
2022/06/28 05:59:35;;;;;;;1.05;0.60;;;15.00;99.90;;;;;;5072988;28;20121;-64
2022/06/28 06:02:02;;;;;;;3.25;0.57;;;15.00;99.90;;;;;;5071536;28;20031;-64
2022/06/28 06:04:29;;;;;;;4.03;0.60;;;15.00;99.90;;;;;;5073244;28;20028;-64
2022/06/28 06:06:57;;;;;;;1.88;0.63;;;15.00;99.90;;;;;;5066304;28;20655;-64
2022/06/28 06:09:24;;;;;;;2.70;0.80;;;14.90;99.90;;;;;;5067193;28;20027;-64
2022/06/28 06:11:51;;;;;;;5.20;0.73;;;14.90;99.90;;;;;;5067409;28;20055;-63
2022/06/28 06:14:18;;;;;;;3.97;1.30;;;14.80;99.90;;;;;;5072109;28;20032;-62
2022/06/28 06:16:45;;;;;;;3.65;2.00;;;14.80;99.90;;;;;;5071564;28;20024;-62
2022/06/28 06:19:15;;;;;;;2.30;0.98;;;14.70;99.90;;;;;;5069101;28;20055;-62
2022/06/28 06:21:42;;;;;;;7.07;1.10;;;14.70;99.90;;;;;;5074333;28;20020;-63
2022/06/28 06:24:10;;;;;;;3.88;1.38;;;14.70;99.90;;;;;;5069499;28;20372;-63
2022/06/28 06:26:37;;;;;;;1.90;0.85;;;14.80;99.90;;;;;;5056413;28;20175;-63
2022/06/28 06:29:04;;;;;;;2.33;0.85;;;14.60;99.90;;;;;;5075583;28;20016;-64
2022/06/28 06:31:32;;;;;;;2.67;1.00;;;14.60;99.90;;;;;;5076641;28;20039;-63
2022/06/28 06:34:00;;;;;;;4.78;1.10;;;14.60;99.90;;;;;;5070807;28;20154;-62
2022/06/28 06:36:28;;;;;;;4.07;1.30;;;14.60;99.90;;;;;;5074507;28;20046;-63
2022/06/28 06:38:55;;;;;;;3.75;1.10;;;14.50;99.90;;;;;;5076182;28;20474;-63
2022/06/28 06:41:23;;;;;;;9.30;1.55;;;14.40;99.90;;;;;;5076555;28;20032;-62
2022/06/28 06:43:52;;;;;;;4.32;1.85;;;14.30;99.90;;;;;;5069787;28;20029;-62
2022/06/28 06:46:19;;;;;;;3.28;1.30;;;14.20;99.90;;;;;;5071662;28;20024;-62
2022/06/28 06:48:46;;;;;;;3.80;1.35;;;14.20;99.90;;;;;;5067003;28;20043;-62
2022/06/28 06:51:13;;;;;;;4.25;1.70;;;14.20;99.90;;;;;;5068169;28;20402;-63
2022/06/28 06:53:40;;;;;;;4.20;1.05;;;14.20;99.90;;;;;;5070727;28;20030;-63
2022/06/28 06:56:07;;;;;;;5.60;1.20;;;14.30;99.90;;;;;;5073570;28;20028;-62
2022/06/28 06:58:34;;;;;;;4.13;1.02;;;14.20;99.90;;;;;;5069998;28;20056;-61
2022/06/28 07:01:02;;;;;;;1.67;1.00;;;14.20;99.90;;;;;;5077684;28;20069;-62
2022/06/28 07:03:29;;;;;;;3.30;0.90;;;14.10;99.90;;;;;;5078285;28;20020;-63
2022/06/28 07:05:56;;;;;;;2.80;0.85;;;14.00;99.90;;;;;;5078301;28;20556;-63
2022/06/28 07:08:23;;;;;;;1.13;0.60;;;14.00;99.90;;;;;;5072451;28;20080;-64
2022/06/28 07:10:50;;;;;;;5.30;1.25;;;13.90;99.90;;;;;;5075226;28;20024;-64
2022/06/28 07:13:17;;;;;;;3.75;1.00;;;13.70;99.90;;;;;;5066581;28;20399;-63
2022/06/28 07:15:44;;;;;;;1.73;1.00;;;13.60;99.90;;;;;;5062108;28;20076;-64
2022/06/28 07:18:11;;;;;;;3.03;1.38;;;13.80;99.90;;;;;;5067143;28;20493;-63
2022/06/28 07:20:39;;;;;;;4.00;2.22;;;13.70;99.90;;;;;;5069444;28;20082;-64
2022/06/28 07:23:06;;;;;;;3.72;1.40;;;13.80;99.90;;;;;;5071682;28;20115;-63
2022/06/28 07:25:34;;;;;;;2.70;0.85;;;14.00;99.90;;;;;;5069293;28;20472;-61
2022/06/28 07:28:01;;;;;;;4.20;0.98;;;14.00;99.90;;;;;;5069213;28;20024;-61
2022/06/28 07:30:28;;;;;;;1.90;0.85;;;14.00;99.90;;;;;;5071855;28;20122;-63
2022/06/28 07:32:55;;;;;;;4.28;1.00;;;14.00;99.90;;;;;;5070958;28;20123;-61
2022/06/28 07:35:24;;;;;;;3.55;0.80;;;14.00;99.90;;;;;;5070850;28;20028;-64
2022/06/28 07:37:52;;;;;;;1.23;0.70;;;14.00;99.90;;;;;;5068333;28;20032;-62
2022/06/28 07:40:19;;;;;;;2.90;0.90;;;13.80;99.90;;;;;;5068390;28;20258;-63
2022/06/28 07:42:47;;;;;;;2.22;0.88;;;13.70;99.90;;;;;;5068262;28;20055;-62
2022/06/28 07:45:15;;;;;;;2.92;0.65;;;13.70;99.90;;;;;;5066869;28;20032;-64
2022/06/28 07:47:47;;;;;;;2.97;0.63;;;13.60;99.90;;;;;;5071555;28;20024;-62
2022/06/28 07:53:02;;;;;;;4.22;0.77;;;13.80;99.90;;;;;;5073401;28;20022;-63
2022/06/28 07:55:30;;;;;;;3.10;0.70;;;13.70;99.90;;;;;;5073131;28;20031;-62
2022/06/28 07:57:58;;;;;;;3.90;1.05;;;13.70;99.90;;;;;;5070049;28;20046;-63
2022/06/28 08:00:26;;;;;;;1.30;0.80;;;13.80;99.90;;;;;;5076728;28;20857;-63
2022/06/28 08:02:54;;;;;;;3.70;1.42;;;13.90;99.90;;;;;;5072994;28;20548;-64
2022/06/28 08:05:21;;;;;;;2.90;1.20;;;13.80;99.90;;;;;;5073945;28;20028;-62
2022/06/28 08:07:48;;;;;;;2.25;1.63;;;13.70;99.90;;;;;;5073790;28;20029;-63
2022/06/28 08:10:16;;;;;;;4.90;2.67;;;13.70;99.90;;;;;;5075698;28;20024;-62
2022/06/28 08:12:44;;;;;;;1.95;0.70;;;13.70;99.90;;;;;;5072266;28;20620;-65
2022/06/28 08:15:12;;;;;;;2.25;0.88;;;13.70;99.90;;;;;;5070289;28;20063;-65
2022/06/28 08:17:39;;;;;;;5.68;3.75;;;13.70;99.90;;;;;;5075289;28;20166;-61
2022/06/28 08:20:07;;;;;;;2.47;1.40;;;13.70;99.90;;;;;;5067464;28;20035;-66
2022/06/28 08:22:35;;;;;;;2.78;0.88;;;13.70;99.90;;;;;;5073567;28;20043;-69
2022/06/28 08:25:02;;;;;;;2.15;0.95;;;13.70;99.90;;;;;;5074070;28;20031;-67
2022/06/28 08:27:30;;;;;;;4.28;0.75;;;13.60;99.90;;;;;;5074608;28;20465;-64
2022/06/28 08:29:57;;;;;;;1.35;0.75;;;13.40;99.90;;;;;;5070400;28;20075;-63
2022/06/28 08:32:24;;;;;;;3.25;1.77;;;13.50;99.90;;;;;;5076185;28;20028;-67
2022/06/28 08:34:52;;;;;;;4.40;1.70;;;13.50;99.90;;;;;;5068811;28;20039;-67
2022/06/28 08:37:19;;;;;;;1.90;1.10;;;13.40;99.90;;;;;;5068863;28;20056;-68
2022/06/28 08:39:47;;;;;;;3.15;0.95;;;13.40;99.90;;;;;;5064896;28;21561;-65
2022/06/28 08:42:23;;;;;;;18.15;11.68;;;13.40;99.90;;;;;;5065851;28;20155;-66
2022/06/28 08:44:52;;;;;;;15.43;9.00;;;13.40;99.90;;;;;;5065585;28;20111;-68
2022/06/28 08:47:21;;;;;;;8.60;6.30;;;13.30;99.90;;;;;;5071116;28;20040;-67
2022/06/28 08:49:57;;;;;;;3.97;2.70;;;13.30;99.90;;;;;;5072435;28;20461;-66
2022/06/28 08:52:24;;;;;;;5.03;1.90;;;13.30;99.90;;;;;;5072147;28;20020;-65
2022/06/28 08:54:53;;;;;;;3.58;1.38;;;13.30;99.90;;;;;;5070325;28;20038;-66
2022/06/28 08:57:21;;;;;;;2.80;1.63;;;13.20;99.90;;;;;;5075206;28;20546;-67
2022/06/28 08:59:49;;;;;;;3.33;2.03;;;13.10;99.90;;;;;;5073162;28;20028;-68
2022/06/28 09:02:17;;;;;;;1.83;1.00;;;13.10;99.90;;;;;;5073520;28;20233;-67
2022/06/28 09:04:53;;;;;;;4.90;1.38;;;13.10;99.90;;;;;;5076984;28;20028;-66
2022/06/28 09:07:21;;;;;;;3.95;2.83;;;13.10;99.90;;;;;;5071369;28;20021;-71
2022/06/28 09:09:49;;;;;;;4.65;1.55;;;13.00;99.90;;;;;;5072942;28;20012;-72
2022/06/28 09:12:18;;;;;;;5.70;2.70;;;12.90;99.90;;;;;;5074316;28;20048;-69
2022/06/28 09:14:46;;;;;;;6.00;3.20;;;12.90;99.90;;;;;;5074104;28;20024;-67
2022/06/28 09:17:27;;;;;;;4.38;2.40;;;12.90;99.90;;;;;;5071448;28;20359;-65
2022/06/28 09:19:58;;;;;;;4.22;2.58;;;12.90;99.90;;;;;;5075554;28;20054;-68
2022/06/28 09:22:36;;;;;;;4.38;3.17;;;13.00;99.90;;;;;;5071289;28;20024;-67
2022/06/28 09:25:06;;;;;;;3.20;1.85;;;13.00;99.90;;;;;;5072981;28;20032;-68
2022/06/28 09:27:36;;;;;;;5.60;2.25;;;13.00;99.90;;;;;;5074724;28;20027;-67
2022/06/28 09:30:07;;;;;;;2.60;1.23;;;13.00;99.90;;;;;;5074374;28;20420;-64
2022/06/28 09:32:36;;;;;;;5.30;1.55;;;12.90;99.90;;;;;;5072265;28;20027;-67
2022/06/28 09:35:11;;;;;;;6.40;1.83;;;13.00;99.90;;;;;;5067163;28;20108;-65
2022/06/28 09:37:56;;;;;;;2.30;1.38;;;13.10;99.90;;;;;;5070067;28;20628;-67
2022/06/28 09:40:31;;;;;;;10.95;7.95;;;13.00;99.90;;;;;;5074406;28;20474;-67
2022/06/28 09:43:15;;;;;;;6.18;3.15;;;12.90;99.90;;;;;;5071239;28;20047;-66
2022/06/28 09:45:46;;;;;;;7.15;2.53;;;12.90;99.90;;;;;;5073020;28;20452;-67
2022/06/28 09:48:21;;;;;;;4.25;1.80;;;12.80;99.90;;;;;;5071742;28;20129;-67
2022/06/28 09:50:49;;;;;;;3.38;1.50;;;12.80;99.90;;;;;;5072549;28;20419;-68
2022/06/28 09:53:19;;;;;;;6.57;1.80;;;12.90;99.90;;;;;;5069957;28;20017;-66
2022/06/28 09:55:47;;;;;;;2.60;1.45;;;12.80;99.90;;;;;;5065648;28;20060;-66
2022/06/28 09:58:14;;;;;;;2.58;1.20;;;12.70;99.90;;;;;;5071287;28;20457;-66
2022/06/28 10:00:41;;;;;;;5.03;2.08;;;12.70;99.90;;;;;;5072144;28;20024;-64
2022/06/28 10:03:09;;;;;;;4.35;2.15;;;12.70;99.90;;;;;;5068774;28;20084;-65
2022/06/28 10:05:36;;;;;;;4.40;1.40;;;12.60;99.90;;;;;;5064555;28;20458;-63
2022/06/28 10:08:04;;;;;;;5.78;1.65;;;12.60;99.90;;;;;;5069504;28;20020;-66
2022/06/28 10:10:31;;;;;;;5.32;1.60;;;12.50;99.90;;;;;;5075152;28;20620;-65
2022/06/28 10:15:53;;;;;;;5.50;2.28;;;12.60;99.90;;;;;;5068933;28;20039;-65
2022/06/28 10:18:23;;;;;;;3.80;1.80;;;12.60;99.90;;;;;;5067272;28;20020;-66
2022/06/28 10:20:51;;;;;;;8.55;3.67;;;12.60;99.90;;;;;;5071408;28;20024;-63
2022/06/28 10:23:36;;;;;;;3.55;1.83;;;12.70;99.90;;;;;;5074303;28;20028;-63
2022/06/28 10:26:20;;;;;;;3.75;1.40;;;12.70;99.90;;;;;;5071908;28;20513;-64
2022/06/28 10:28:59;;;;;;;4.03;1.80;;;12.80;99.90;;;;;;5074982;28;20315;-64
2022/06/28 10:31:28;;;;;;;2.63;1.50;;;12.80;99.90;;;;;;5067806;28;20108;-64
2022/06/28 10:33:57;;;;;;;7.03;2.60;;;12.80;99.90;;;;;;5065088;28;20417;-63
2022/06/28 10:36:33;;;;;;;6.10;2.03;;;12.70;99.90;;;;;;5071148;28;20028;-63
2022/06/28 10:39:10;;;;;;;5.72;3.25;;;12.70;99.90;;;;;;5065398;28;20048;-63
2022/06/28 10:41:43;;;;;;;6.63;2.90;;;12.60;99.90;;;;;;5069945;28;20154;-63
2022/06/28 10:44:10;;;;;;;;;;;12.80;99.90;;;;;;5070731;28;20473;-67
2022/06/28 10:46:37;;;;;;;5.18;1.75;;;12.80;99.90;;;;;;5070364;28;20006;-64
2022/06/28 10:49:07;;;;;;;7.15;2.70;;;12.90;99.90;;;;;;5071542;28;20027;-68
2022/06/28 10:51:36;;;;;;;7.43;2.35;;;12.70;99.90;;;;;;5074414;28;20153;-64
2022/06/28 10:54:09;;;;;;;4.97;2.13;;;12.70;99.90;;;;;;5069665;28;20032;-64
2022/06/28 10:56:47;;;;;;;;;;;12.70;99.90;;;;;;5073963;28;20131;-64
2022/06/28 10:59:17;;;;;;;3.67;2.20;;;12.60;99.90;;;;;;5071350;28;19916;-62
2022/06/28 11:01:47;;;;;;;3.70;1.20;;;12.60;99.90;;;;;;5069681;28;20483;-63
2022/06/28 11:04:23;;;;;;;4.97;1.50;;;12.70;99.90;;;;;;5053654;28;20025;-64
2022/06/28 11:07:00;;;;;;;4.53;1.75;;;12.80;99.90;;;;;;5047371;28;20501;-64
2022/06/28 11:09:57;;;;;;;4.78;1.10;;;12.80;99.90;;;;;;5050505;28;20510;-63
2022/06/28 11:12:30;;;;;;;5.32;1.38;;;12.70;99.90;;;;;;5053963;28;20025;-63
2022/06/28 11:15:06;;;;;;;5.50;1.05;;;12.70;99.90;;;;;;5052998;28;20396;-64
2022/06/28 11:17:36;;;;;;;3.13;1.10;;;12.70;99.90;;;;;;5052549;28;20032;-64
2022/06/28 11:20:20;;;;;;;1.48;0.82;;;12.70;99.90;;;;;;5050580;28;20043;-62
2022/06/28 11:22:49;;;;;;;2.95;1.10;;;12.70;99.90;;;;;;5049729;28;20063;-64
2022/06/28 11:25:21;;;;;;;3.30;0.98;;;12.70;99.90;;;;;;5052723;28;20021;-64
2022/06/28 11:27:53;;;;;;;1.63;0.80;;;12.70;99.90;;;;;;5054866;28;20025;-64
2022/06/28 11:30:23;;;;;;;1.17;0.90;;;12.60;99.90;;;;;;5053166;28;20059;-63
2022/06/28 11:32:53;;;;;;;1.85;1.17;;;12.70;99.90;;;;;;5057788;28;20032;-62
2022/06/28 11:35:25;;;;;;;1.92;1.20;;;12.70;99.90;;;;;;5050297;28;20255;-65
2022/06/28 11:38:05;;;;;;;2.05;1.25;;;12.70;99.90;;;;;;5055363;28;20379;-63
2022/06/28 11:40:43;;;;;;;1.98;1.17;;;12.60;99.90;;;;;;5053832;28;20044;-65
2022/06/28 11:43:12;;;;;;;3.92;1.38;;;12.50;99.90;;;;;;5053703;28;20040;-64
2022/06/28 11:45:43;;;;;;;3.33;1.45;;;12.60;99.90;;;;;;5061747;28;20399;-68
2022/06/28 11:48:14;;;;;;;3.53;1.27;;;12.40;99.90;;;;;;5056335;28;20029;-65
2022/06/28 11:50:44;;;;;;;5.28;1.38;;;12.40;99.90;;;;;;5060388;28;20383;-65
2022/06/28 11:53:13;;;;;;;2.80;1.33;;;12.30;99.90;;;;;;5054759;28;20021;-66
2022/06/28 11:55:43;;;;;;;5.82;3.88;;;12.30;99.90;;;;;;5056047;28;20032;-65
2022/06/28 11:58:31;;;;;;;3.50;1.73;;;12.20;99.90;;;;;;5055752;28;20090;-65
2022/06/28 12:01:04;;;;;;;2.83;1.55;;;12.10;99.90;;;;;;5056857;28;20039;-65
2022/06/28 12:03:32;;;;;;;4.18;1.63;;;12.10;99.90;;;;;;5057964;28;20040;-65
2022/06/28 12:06:01;;;;;;;3.08;1.45;;;12.10;99.90;;;;;;5059410;28;20413;-66
2022/06/28 12:08:51;;;;;;;5.88;2.83;;;12.10;99.90;;;;;;5054793;28;20510;-66
2022/06/28 12:11:33;;;;;;;4.97;2.95;;;12.10;99.90;;;;;;5057326;28;20036;-64
2022/06/28 12:14:17;;;;;;;3.63;1.70;;;12.00;99.90;;;;;;5040723;28;20032;-65
2022/06/28 12:17:12;;;;;;;3.50;1.70;;;12.00;99.90;;;;;;5055669;28;20021;-66
2022/06/28 12:19:39;;;;;;;5.57;1.90;;;12.00;99.90;;;;;;5052070;28;20064;-62
2022/06/28 12:22:08;;;;;;;6.82;2.80;;;12.00;99.90;;;;;;5056846;28;20115;-62
2022/06/28 12:24:54;;;;;;;5.78;1.90;;;12.10;99.90;;;;;;5060001;28;20025;-63
2022/06/28 12:27:22;;;;;;;6.40;2.08;;;12.20;99.90;;;;;;5057154;28;20017;-63
2022/06/28 12:29:52;;;;;;;4.07;3.20;;;12.30;99.90;;;;;;5056344;28;20495;-63
2022/06/28 12:32:19;;;;;;;5.88;2.30;;;12.30;99.90;;;;;;5056262;28;20425;-62
2022/06/28 12:34:47;;;;;;;5.25;3.10;;;12.20;99.90;;;;;;5055422;28;20033;-64
2022/06/28 12:37:14;;;;;;;5.78;2.60;;;12.10;99.90;;;;;;5055241;28;20044;-64
2022/06/28 12:39:41;;;;;;;5.63;2.63;;;12.10;99.90;;;;;;5056356;28;20029;-64
2022/06/28 12:42:09;;;;;;;3.50;2.03;;;12.10;99.90;;;;;;5060433;28;20021;-63
2022/06/28 12:44:36;;;;;;;3.47;2.15;;;12.20;99.90;;;;;;5058236;28;20110;-64
2022/06/28 12:47:03;;;;;;;2.72;1.80;;;12.10;99.90;;;;;;5056643;28;20480;-64
2022/06/28 12:49:30;;;;;;;6.57;2.33;;;12.00;99.90;;;;;;5056623;28;20025;-64
2022/06/28 12:51:58;;;;;;;9.45;2.45;;;12.00;99.90;;;;;;5058848;28;20029;-62
2022/06/28 12:54:25;;;;;;;9.40;2.47;;;12.10;99.90;;;;;;5057192;28;20032;-63
2022/06/28 12:56:52;;;;;;;6.53;2.70;;;12.00;99.90;;;;;;5056946;28;20098;-63
2022/06/28 12:59:19;;;;;;;12.82;5.07;;;12.00;99.90;;;;;;5057693;28;20024;-63
2022/06/28 13:01:47;;;;;;;10.38;4.32;;;12.10;99.90;;;;;;5056359;28;20126;-63
2022/06/28 13:04:16;;;;;;;9.30;5.13;;;12.00;99.90;;;;;;5060369;28;20095;-64
2022/06/28 13:06:47;;;;;;;8.55;4.50;;;12.00;99.90;;;;;;5056442;28;20568;-63
2022/06/28 13:09:14;;;;;;;7.68;3.88;;;11.90;99.90;;;;;;5056167;28;20056;-63